Time;durP1;ratioP1;P1;durP2;ratioP2;P2;SDS_P1;SDS_P2;PMS_P1;PMS_P2;Temp;Humidity;BMP_temperature;BMP_pressure;BME280_temperature;BME280_humidity;BME280_pressure;Samples;Min_cycle;Max_cycle;Signal;HPM_P1;HPM_P2
2022/10/27 00:32:38;;;;;;;175.97;54.27;;;7.10;99.90;;;;;;4776516;29;20442;-84
2022/10/27 00:57:34;;;;;;;128.13;47.60;;;7.10;99.90;;;;;;4712517;30;21248;-85
2022/10/27 01:38:24;;;;;;;163.30;50.80;;;7.00;99.90;;;;;;5804286;23;20209;-84
2022/10/27 02:08:42;;;;;;;119.53;47.73;;;6.70;99.90;;;;;;4710553;29;20233;-86
2022/10/27 02:28:52;;;;;;;146.63;48.93;;;6.70;99.90;;;;;;4581509;30;21197;-85
2022/10/27 02:54:33;;;;;;;111.93;44.63;;;6.60;99.90;;;;;;4654014;30;20282;-85
2022/10/27 03:19:52;;;;;;;85.10;42.37;;;6.40;99.90;;;;;;4749109;29;20299;-84
2022/10/27 03:49:44;;;;;;;65.80;39.27;;;6.20;99.90;;;;;;4633232;30;20812;-84
2022/10/27 04:15:41;;;;;;;69.43;40.30;;;5.70;99.90;;;;;;4730510;29;20257;-85
2022/10/27 04:50:36;;;;;;;78.43;42.43;;;5.40;99.90;;;;;;4394911;30;20508;-81
2022/10/27 05:36:56;;;;;;;64.53;36.90;;;5.20;99.90;;;;;;4481318;30;20215;-78
2022/10/27 06:06:41;;;;;;;91.90;48.57;;;5.50;99.90;;;;;;4566016;29;20293;-79
2022/10/27 06:32:12;;;;;;;69.20;41.57;;;6.80;99.90;;;;;;4443627;30;20576;-81
2022/10/27 06:52:31;;;;;;;55.43;37.67;;;7.70;99.90;;;;;;4256331;31;21304;-79
2022/10/27 07:23:13;;;;;;;48.63;35.83;;;8.40;99.90;;;;;;4323207;31;20212;-80
2022/10/27 08:34:19;;;;;;;31.80;27.10;;;10.70;99.90;;;;;;4493546;30;20291;-78
2022/10/27 08:59:33;;;;;;;29.87;25.80;;;11.50;99.90;;;;;;4406492;30;20577;-78
2022/10/27 09:24:57;;;;;;;26.37;23.33;;;12.30;99.90;;;;;;4509204;30;20759;-80
2022/10/27 09:54:57;;;;;;;23.80;20.00;;;13.10;99.90;;;;;;4394436;30;20625;-77
2022/10/27 10:15:44;;;;;;;23.93;20.17;;;13.60;99.90;;;;;;4360711;31;20319;-78
2022/10/27 10:40:36;;;;;;;25.13;16.67;;;14.60;93.90;;;;;;4377176;30;20861;-82
2022/10/27 11:31:22;;;;;;;17.87;12.37;;;15.60;94.70;;;;;;4778368;28;20866;-78
2022/10/27 12:01:58;;;;;;;11.10;9.23;;;16.10;93.10;;;;;;4687066;28;20558;-80
2022/10/27 12:42:19;;;;;;;10.13;7.47;;;17.00;90.10;;;;;;4618031;29;20377;-80
2022/10/27 13:07:53;;;;;;;14.23;10.90;;;16.90;90.60;;;;;;4839666;29;20432;-84
2022/10/27 13:33:37;;;;;;;15.97;13.47;;;16.60;91.40;;;;;;4886569;28;20234;-85
2022/10/27 14:18:41;;;;;;;17.00;13.20;;;15.80;95.80;;;;;;4842582;28;20437;-84
2022/10/27 14:34:24;;;;;;;15.50;12.60;;;15.40;97.30;;;;;;4898444;28;20244;-84
2022/10/27 15:04:49;;;;;;;21.47;16.53;;;14.60;99.90;;;;;;4874497;28;20209;-87
2022/10/27 15:34:58;;;;;;;26.03;17.97;;;13.10;99.90;;;;;;4666189;30;20602;-87
2022/10/27 15:55:44;;;;;;;20.47;15.23;;;12.40;99.90;;;;;;4719244;30;20272;-87
2022/10/27 16:20:46;;;;;;;23.70;19.37;;;11.70;99.90;;;;;;4632420;30;20788;-86
2022/10/27 16:31:02;;;;;;;26.80;20.77;;;11.40;99.90;;;;;;5785535;23;20244;-83
2022/10/27 16:56:18;;;;;;;36.60;25.00;;;11.10;99.90;;;;;;4777609;29;20224;-84
2022/10/27 17:31:55;;;;;;;47.70;29.00;;;10.30;99.90;;;;;;4847352;29;20222;-86
2022/10/27 17:57:22;;;;;;;59.93;38.33;;;10.00;99.90;;;;;;4817530;29;20439;-86
2022/10/27 18:22:39;;;;;;;62.63;40.43;;;9.80;99.90;;;;;;4807387;29;20251;-86
2022/10/27 18:53:10;;;;;;;72.20;45.50;;;9.60;99.90;;;;;;4597326;30;20740;-86
2022/10/27 19:33:08;;;;;;;76.37;46.63;;;9.30;99.90;;;;;;4678789;30;20751;-87
2022/10/27 19:58:30;;;;;;;73.93;47.90;;;9.00;99.90;;;;;;4731619;29;20585;-87
2022/10/27 20:23:52;;;;;;;73.37;48.03;;;8.60;99.90;;;;;;4795433;29;20535;-87
2022/10/27 20:44:15;;;;;;;92.87;54.93;;;8.40;99.90;;;;;;4667714;30;20292;-86
2022/10/27 21:30:10;;;;;;;92.73;57.83;;;8.00;99.90;;;;;;4715612;29;20592;-86
2022/10/27 21:50:37;;;;;;;91.47;55.37;;;7.70;99.90;;;;;;4599469;30;20275;-85
2022/10/27 22:15:54;;;;;;;101.33;63.60;;;7.80;99.90;;;;;;4637310;30;20297;-86
2022/10/27 22:21:14;;;;;;;103.90;62.87;;;7.70;99.90;;;;;;5764314;23;20250;-87
2022/10/27 22:46:40;;;;;;;87.83;56.57;;;7.70;99.90;;;;;;4807253;29;20212;-86
2022/10/27 23:17:05;;;;;;;94.43;59.83;;;7.40;99.90;;;;;;4788744;29;20207;-85
2022/10/27 23:47:29;;;;;;;87.17;59.83;;;7.50;99.90;;;;;;4654788;30;20232;-85
